createdAt,value
2023-02-23T00:02:46.425Z,100255.97
2023-02-23T00:12:59.108Z,100264.59
2023-02-23T00:23:00.784Z,100258.50
2023-02-23T00:33:02.709Z,100261.91
2023-02-23T00:43:04.683Z,100257.66
2023-02-23T00:53:11.457Z,100260.94
2023-02-23T01:03:14.027Z,100266.91
2023-02-23T01:13:18.291Z,100259.09
2023-02-23T01:23:26.967Z,100267.72
2023-02-23T01:33:32.944Z,100247.03
2023-02-23T01:43:35.491Z,100255.69
2023-02-23T01:53:44.981Z,100248.09
2023-02-23T02:03:58.821Z,100254.00
2023-02-23T02:14:28.072Z,100238.66
2023-02-23T02:24:58.520Z,100247.22
2023-02-23T02:35:51.816Z,100243.84
2023-02-23T02:46:15.815Z,100253.28
2023-02-23T02:56:22.298Z,100240.31
2023-02-23T03:07:05.903Z,100253.94
2023-02-23T03:17:43.440Z,100270.13
2023-02-23T03:28:30.667Z,100268.28
2023-02-23T03:39:04.368Z,100272.59
2023-02-23T03:49:28.991Z,100269.06
2023-02-23T03:59:57.510Z,100281.81
2023-02-23T04:10:23.785Z,100274.13
2023-02-23T04:20:29.011Z,100268.88
2023-02-23T04:30:33.400Z,100277.38
2023-02-23T04:40:35.813Z,100287.69
2023-02-23T04:50:37.752Z,100279.13
2023-02-23T05:00:41.056Z,100287.59
2023-02-23T05:10:56.124Z,100268.75
2023-02-23T05:21:08.959Z,100286.66
2023-02-23T05:31:12.184Z,100288.28
2023-02-23T05:41:23.313Z,100292.56
2023-02-23T05:51:25.373Z,100289.13
2023-02-23T06:01:28.210Z,100303.91
2023-02-23T06:12:07.981Z,100320.41
2023-02-23T06:22:17.897Z,100279.06
2023-02-23T06:32:27.380Z,100296.34
2023-02-23T06:42:36.085Z,100338.59
2023-02-23T06:52:49.671Z,100354.09
2023-02-23T07:02:53.748Z,100355.13
2023-02-23T07:12:55.909Z,100376.06
2023-02-23T07:23:07.152Z,100369.31
2023-02-23T07:33:09.025Z,100374.44
2023-02-23T07:43:13.886Z,100367.75
2023-02-23T07:53:15.843Z,100362.66
2023-02-23T08:03:25.369Z,100362.72
2023-02-23T08:13:43.935Z,100373.28
2023-02-23T08:23:50.733Z,100383.63
2023-02-23T08:33:54.949Z,100391.53
2023-02-23T08:44:00.611Z,100394.25
2023-02-23T08:54:04.371Z,100400.25
2023-02-23T09:04:07.417Z,100392.50
2023-02-23T09:14:10.232Z,100404.53
2023-02-23T09:24:12.243Z,100401.13
2023-02-23T09:34:14.113Z,100400.25
2023-02-23T09:44:24.332Z,100402.69
2023-02-23T09:54:32.897Z,100409.56
2023-02-23T10:04:59.537Z,100408.00
2023-02-23T10:15:19.909Z,100402.72
2023-02-23T10:25:26.281Z,100406.22
2023-02-23T10:35:30.134Z,100395.81
2023-02-23T10:45:40.446Z,100392.31
2023-02-23T10:55:45.999Z,100380.09
2023-02-23T11:05:53.084Z,100364.47
2023-02-23T11:16:04.956Z,100353.25
2023-02-23T11:26:23.772Z,100340.91
2023-02-23T11:36:29.989Z,100341.06
2023-02-23T11:46:35.953Z,100334.44
2023-02-23T11:56:38.137Z,100326.00
2023-02-23T12:06:42.261Z,100322.28
2023-02-23T12:16:51.587Z,100303.56
2023-02-23T12:27:13.045Z,100291.34
2023-02-23T12:37:38.981Z,100293.97
2023-02-23T12:48:06.398Z,100284.66
2023-02-23T12:58:25.659Z,100267.16
2023-02-23T13:08:42.534Z,100266.38
2023-02-23T13:19:02.909Z,100235.16
2023-02-23T13:29:39.246Z,100239.91
2023-02-23T13:39:48.765Z,100239.28
2023-02-23T13:50:23.213Z,100235.91
2023-02-23T14:00:24.935Z,100213.72
2023-02-23T14:10:45.770Z,100226.88
2023-02-23T14:20:58.820Z,100223.28
2023-02-23T14:31:20.544Z,100223.94
2023-02-23T14:41:59.623Z,100214.03
2023-02-23T14:52:08.367Z,100194.88
2023-02-23T15:02:16.957Z,100219.84
2023-02-23T15:12:28.624Z,100199.94
2023-02-23T15:22:37.055Z,100203.34
2023-02-23T15:32:38.884Z,100186.41
2023-02-23T15:42:48.501Z,100191.75
2023-02-23T15:52:56.173Z,100168.78
2023-02-23T16:03:04.738Z,100190.31
2023-02-23T16:13:07.612Z,100175.72
2023-02-23T16:23:35.785Z,100197.25
2023-02-23T16:34:00.443Z,100178.44
2023-02-23T16:44:06.672Z,100181.88
2023-02-23T16:54:11.796Z,100195.59
2023-02-23T17:04:21.806Z,100200.75
2023-02-23T17:14:30.725Z,100175.94
2023-02-23T17:24:43.675Z,100185.34
2023-02-23T17:34:46.302Z,100181.91
2023-02-23T17:44:50.029Z,100184.53
2023-02-23T17:54:55.866Z,100195.72
2023-02-23T18:05:03.038Z,100181.16
2023-02-23T18:15:09.511Z,100182.00
2023-02-23T18:25:28.403Z,100172.56
2023-02-23T18:35:36.516Z,100175.16
2023-02-23T18:45:47.972Z,100157.13
2023-02-23T18:56:06.519Z,100163.13
2023-02-23T19:06:14.890Z,100153.69
2023-02-23T19:16:20.105Z,100152.81
2023-02-23T19:26:28.075Z,100156.25
2023-02-23T19:36:37.147Z,100164.84
2023-02-23T19:46:43.635Z,100169.09
2023-02-23T19:56:47.815Z,100151.88
2023-02-23T20:06:52.061Z,100169.03
2023-02-23T20:16:57.019Z,100163.84
2023-02-23T20:27:08.192Z,100142.34
2023-02-23T20:37:15.282Z,100139.88
2023-02-23T20:47:20.593Z,100122.69
2023-02-23T20:57:23.402Z,100124.38
2023-02-23T21:07:27.016Z,100132.09
2023-02-23T21:17:29.836Z,100132.13
2023-02-23T21:27:32.502Z,100114.09
2023-02-23T21:37:43.797Z,100126.06
2023-02-23T21:47:50.781Z,100111.47
2023-02-23T21:57:58.189Z,100103.75
2023-02-23T22:08:02.001Z,100090.88
2023-02-23T22:18:04.884Z,100071.13
2023-02-23T22:28:09.433Z,100055.72
2023-02-23T22:38:14.042Z,100071.16
2023-02-23T22:48:15.770Z,100050.56
2023-02-23T22:58:20.242Z,100054.94
2023-02-23T23:08:22.531Z,100053.19
2023-02-23T23:18:24.685Z,100038.53
2023-02-23T23:28:40.156Z,100047.94
2023-02-23T23:38:43.007Z,100026.56
2023-02-23T23:48:49.846Z,100016.28
2023-02-23T23:58:58.483Z,100004.28
